sensor_id;sensor_type;location;lat;lon;timestamp;P1;durP1;ratioP1;P2;durP2;ratioP2
55330;SDS011;58851;42.984;20.336;2023-02-28T00:00:05;48.63;;;28.08;;
55330;SDS011;58851;42.984;20.336;2023-02-28T00:02:35;60.22;;;31.02;;
55330;SDS011;58851;42.984;20.336;2023-02-28T00:05:04;67.07;;;37.35;;
55330;SDS011;58851;42.984;20.336;2023-02-28T00:07:31;103.78;;;56.03;;
55330;SDS011;58851;42.984;20.336;2023-02-28T00:09:57;85.50;;;40.65;;
55330;SDS011;58851;42.984;20.336;2023-02-28T00:12:23;57.20;;;30.20;;
55330;SDS011;58851;42.984;20.336;2023-02-28T00:14:49;47.45;;;30.15;;
55330;SDS011;58851;42.984;20.336;2023-02-28T00:17:15;50.72;;;30.40;;
55330;SDS011;58851;42.984;20.336;2023-02-28T00:19:46;70.40;;;38.97;;
55330;SDS011;58851;42.984;20.336;2023-02-28T00:22:16;48.92;;;28.65;;
55330;SDS011;58851;42.984;20.336;2023-02-28T00:24:43;59.03;;;32.28;;
55330;SDS011;58851;42.984;20.336;2023-02-28T00:27:09;62.20;;;35.47;;
55330;SDS011;58851;42.984;20.336;2023-02-28T00:29:36;61.00;;;33.88;;
55330;SDS011;58851;42.984;20.336;2023-02-28T00:32:02;102.43;;;56.00;;
55330;SDS011;58851;42.984;20.336;2023-02-28T00:34:27;81.45;;;44.88;;
55330;SDS011;58851;42.984;20.336;2023-02-28T00:36:54;94.70;;;44.53;;
55330;SDS011;58851;42.984;20.336;2023-02-28T00:39:19;85.00;;;47.40;;
55330;SDS011;58851;42.984;20.336;2023-02-28T00:41:45;66.38;;;35.22;;
55330;SDS011;58851;42.984;20.336;2023-02-28T00:44:11;62.42;;;32.33;;
55330;SDS011;58851;42.984;20.336;2023-02-28T00:46:37;67.97;;;32.92;;
55330;SDS011;58851;42.984;20.336;2023-02-28T00:49:02;60.63;;;32.25;;
55330;SDS011;58851;42.984;20.336;2023-02-28T00:51:28;63.25;;;30.70;;
55330;SDS011;58851;42.984;20.336;2023-02-28T00:53:54;53.00;;;29.75;;
55330;SDS011;58851;42.984;20.336;2023-02-28T00:56:20;54.60;;;29.38;;
55330;SDS011;58851;42.984;20.336;2023-02-28T00:58:45;63.75;;;32.72;;
55330;SDS011;58851;42.984;20.336;2023-02-28T01:01:11;65.53;;;35.53;;
55330;SDS011;58851;42.984;20.336;2023-02-28T01:03:37;55.30;;;29.77;;
55330;SDS011;58851;42.984;20.336;2023-02-28T01:06:03;50.53;;;27.40;;
55330;SDS011;58851;42.984;20.336;2023-02-28T01:08:30;53.88;;;28.17;;
55330;SDS011;58851;42.984;20.336;2023-02-28T01:10:56;61.58;;;28.27;;
55330;SDS011;58851;42.984;20.336;2023-02-28T01:13:22;62.13;;;31.98;;
55330;SDS011;58851;42.984;20.336;2023-02-28T01:15:51;60.00;;;31.73;;
55330;SDS011;58851;42.984;20.336;2023-02-28T01:18:20;58.70;;;32.15;;
55330;SDS011;58851;42.984;20.336;2023-02-28T01:20:46;58.60;;;30.67;;
55330;SDS011;58851;42.984;20.336;2023-02-28T01:23:12;57.83;;;32.03;;
55330;SDS011;58851;42.984;20.336;2023-02-28T01:25:38;65.03;;;32.58;;
55330;SDS011;58851;42.984;20.336;2023-02-28T01:28:04;69.32;;;35.97;;
55330;SDS011;58851;42.984;20.336;2023-02-28T01:30:31;62.97;;;32.78;;
55330;SDS011;58851;42.984;20.336;2023-02-28T01:32:57;57.45;;;29.02;;
55330;SDS011;58851;42.984;20.336;2023-02-28T01:35:23;50.38;;;26.38;;
55330;SDS011;58851;42.984;20.336;2023-02-28T01:37:49;48.60;;;24.85;;
55330;SDS011;58851;42.984;20.336;2023-02-28T01:40:14;45.53;;;24.50;;
55330;SDS011;58851;42.984;20.336;2023-02-28T01:42:40;50.05;;;28.17;;
55330;SDS011;58851;42.984;20.336;2023-02-28T01:50:20;48.67;;;29.38;;
55330;SDS011;58851;42.984;20.336;2023-02-28T01:52:50;58.70;;;32.05;;
55330;SDS011;58851;42.984;20.336;2023-02-28T01:55:19;52.95;;;27.13;;
55330;SDS011;58851;42.984;20.336;2023-02-28T01:57:49;55.03;;;30.95;;
55330;SDS011;58851;42.984;20.336;2023-02-28T02:00:20;56.17;;;31.38;;
55330;SDS011;58851;42.984;20.336;2023-02-28T02:02:49;44.55;;;21.90;;
55330;SDS011;58851;42.984;20.336;2023-02-28T02:05:19;47.45;;;23.63;;
55330;SDS011;58851;42.984;20.336;2023-02-28T02:07:48;48.25;;;26.67;;
55330;SDS011;58851;42.984;20.336;2023-02-28T02:10:21;48.70;;;26.98;;
55330;SDS011;58851;42.984;20.336;2023-02-28T02:18:25;53.35;;;31.08;;
55330;SDS011;58851;42.984;20.336;2023-02-28T02:37:42;52.63;;;27.45;;
55330;SDS011;58851;42.984;20.336;2023-02-28T02:40:35;46.67;;;23.23;;
55330;SDS011;58851;42.984;20.336;2023-02-28T02:45:39;51.53;;;25.27;;
55330;SDS011;58851;42.984;20.336;2023-02-28T02:48:31;54.45;;;27.85;;
55330;SDS011;58851;42.984;20.336;2023-02-28T02:51:00;43.42;;;23.73;;
55330;SDS011;58851;42.984;20.336;2023-02-28T02:53:32;40.63;;;23.08;;
55330;SDS011;58851;42.984;20.336;2023-02-28T02:56:02;38.75;;;21.92;;
55330;SDS011;58851;42.984;20.336;2023-02-28T02:58:30;45.97;;;23.95;;
55330;SDS011;58851;42.984;20.336;2023-02-28T03:01:00;46.35;;;24.27;;
55330;SDS011;58851;42.984;20.336;2023-02-28T03:03:27;44.10;;;22.05;;
55330;SDS011;58851;42.984;20.336;2023-02-28T03:05:56;49.88;;;24.63;;
55330;SDS011;58851;42.984;20.336;2023-02-28T03:08:26;47.95;;;24.08;;
55330;SDS011;58851;42.984;20.336;2023-02-28T03:11:00;42.67;;;20.90;;
55330;SDS011;58851;42.984;20.336;2023-02-28T03:27:30;55.15;;;29.08;;
55330;SDS011;58851;42.984;20.336;2023-02-28T03:30:20;53.78;;;25.55;;
55330;SDS011;58851;42.984;20.336;2023-02-28T03:35:28;48.65;;;27.85;;
55330;SDS011;58851;42.984;20.336;2023-02-28T03:38:10;44.78;;;25.15;;
55330;SDS011;58851;42.984;20.336;2023-02-28T03:40:48;46.53;;;22.98;;
55330;SDS011;58851;42.984;20.336;2023-02-28T03:43:21;43.80;;;24.05;;
55330;SDS011;58851;42.984;20.336;2023-02-28T03:50:59;47.95;;;23.20;;
55330;SDS011;58851;42.984;20.336;2023-02-28T03:53:32;45.22;;;25.60;;
55330;SDS011;58851;42.984;20.336;2023-02-28T03:58:59;38.80;;;23.38;;
55330;SDS011;58851;42.984;20.336;2023-02-28T04:01:47;42.95;;;22.30;;
55330;SDS011;58851;42.984;20.336;2023-02-28T04:04:14;41.97;;;22.48;;
55330;SDS011;58851;42.984;20.336;2023-02-28T04:06:41;37.65;;;19.67;;
55330;SDS011;58851;42.984;20.336;2023-02-28T04:09:09;38.95;;;19.52;;
55330;SDS011;58851;42.984;20.336;2023-02-28T04:11:37;39.58;;;20.67;;
55330;SDS011;58851;42.984;20.336;2023-02-28T04:14:03;40.28;;;23.13;;
55330;SDS011;58851;42.984;20.336;2023-02-28T04:16:31;42.30;;;24.65;;
55330;SDS011;58851;42.984;20.336;2023-02-28T04:18:57;50.75;;;24.50;;
55330;SDS011;58851;42.984;20.336;2023-02-28T04:21:32;49.75;;;24.75;;
55330;SDS011;58851;42.984;20.336;2023-02-28T04:24:06;41.33;;;22.95;;
55330;SDS011;58851;42.984;20.336;2023-02-28T04:26:34;44.83;;;24.33;;
55330;SDS011;58851;42.984;20.336;2023-02-28T04:29:02;37.03;;;19.55;;
55330;SDS011;58851;42.984;20.336;2023-02-28T04:31:29;37.08;;;20.02;;
55330;SDS011;58851;42.984;20.336;2023-02-28T04:33:55;47.45;;;23.52;;
55330;SDS011;58851;42.984;20.336;2023-02-28T04:36:21;40.35;;;22.45;;
55330;SDS011;58851;42.984;20.336;2023-02-28T04:38:48;44.08;;;24.58;;
55330;SDS011;58851;42.984;20.336;2023-02-28T04:41:14;45.50;;;23.85;;
55330;SDS011;58851;42.984;20.336;2023-02-28T04:43:41;47.75;;;22.83;;
55330;SDS011;58851;42.984;20.336;2023-02-28T04:46:07;40.42;;;23.48;;
55330;SDS011;58851;42.984;20.336;2023-02-28T04:48:35;42.75;;;23.40;;
55330;SDS011;58851;42.984;20.336;2023-02-28T04:51:06;43.53;;;24.17;;
55330;SDS011;58851;42.984;20.336;2023-02-28T04:53:37;47.10;;;26.15;;
55330;SDS011;58851;42.984;20.336;2023-02-28T04:56:04;46.88;;;25.48;;
55330;SDS011;58851;42.984;20.336;2023-02-28T04:58:31;41.72;;;22.58;;
55330;SDS011;58851;42.984;20.336;2023-02-28T05:01:07;47.15;;;25.75;;
55330;SDS011;58851;42.984;20.336;2023-02-28T05:03:46;40.97;;;21.20;;
55330;SDS011;58851;42.984;20.336;2023-02-28T05:06:13;59.13;;;25.90;;
55330;SDS011;58851;42.984;20.336;2023-02-28T05:08:39;67.47;;;32.85;;
55330;SDS011;58851;42.984;20.336;2023-02-28T05:11:06;55.38;;;29.27;;
55330;SDS011;58851;42.984;20.336;2023-02-28T05:13:38;51.47;;;26.77;;
55330;SDS011;58851;42.984;20.336;2023-02-28T05:16:04;53.08;;;26.17;;
55330;SDS011;58851;42.984;20.336;2023-02-28T05:18:30;64.47;;;30.77;;
55330;SDS011;58851;42.984;20.336;2023-02-28T05:20:56;55.53;;;29.25;;
55330;SDS011;58851;42.984;20.336;2023-02-28T05:23:22;61.38;;;32.17;;
55330;SDS011;58851;42.984;20.336;2023-02-28T05:25:48;68.90;;;36.08;;
55330;SDS011;58851;42.984;20.336;2023-02-28T05:28:14;65.75;;;32.60;;
55330;SDS011;58851;42.984;20.336;2023-02-28T05:30:40;61.03;;;31.23;;
55330;SDS011;58851;42.984;20.336;2023-02-28T05:33:05;51.75;;;25.45;;
55330;SDS011;58851;42.984;20.336;2023-02-28T05:35:31;48.80;;;26.67;;
55330;SDS011;58851;42.984;20.336;2023-02-28T05:37:57;51.67;;;25.02;;
55330;SDS011;58851;42.984;20.336;2023-02-28T05:40:23;59.20;;;28.38;;
55330;SDS011;58851;42.984;20.336;2023-02-28T05:42:49;57.22;;;30.27;;
55330;SDS011;58851;42.984;20.336;2023-02-28T05:45:15;66.40;;;30.75;;
55330;SDS011;58851;42.984;20.336;2023-02-28T05:47:42;71.18;;;38.75;;
55330;SDS011;58851;42.984;20.336;2023-02-28T05:50:08;70.82;;;36.92;;
55330;SDS011;58851;42.984;20.336;2023-02-28T05:52:35;81.03;;;39.25;;
55330;SDS011;58851;42.984;20.336;2023-02-28T05:55:02;79.75;;;40.80;;
55330;SDS011;58851;42.984;20.336;2023-02-28T05:57:28;88.28;;;40.25;;
55330;SDS011;58851;42.984;20.336;2023-02-28T05:59:54;88.80;;;46.10;;
55330;SDS011;58851;42.984;20.336;2023-02-28T06:02:20;77.28;;;36.88;;
55330;SDS011;58851;42.984;20.336;2023-02-28T06:04:46;95.20;;;47.20;;
55330;SDS011;58851;42.984;20.336;2023-02-28T06:07:12;82.13;;;42.78;;
55330;SDS011;58851;42.984;20.336;2023-02-28T06:09:37;77.82;;;37.00;;
55330;SDS011;58851;42.984;20.336;2023-02-28T06:12:04;79.03;;;37.80;;
55330;SDS011;58851;42.984;20.336;2023-02-28T06:14:32;92.53;;;41.80;;
55330;SDS011;58851;42.984;20.336;2023-02-28T06:17:00;103.95;;;45.10;;
55330;SDS011;58851;42.984;20.336;2023-02-28T06:19:26;76.82;;;39.15;;
55330;SDS011;58851;42.984;20.336;2023-02-28T06:21:52;75.40;;;34.38;;
55330;SDS011;58851;42.984;20.336;2023-02-28T06:24:20;74.00;;;36.05;;
55330;SDS011;58851;42.984;20.336;2023-02-28T06:26:46;76.10;;;34.33;;
55330;SDS011;58851;42.984;20.336;2023-02-28T06:29:12;68.43;;;37.22;;
55330;SDS011;58851;42.984;20.336;2023-02-28T06:31:42;70.70;;;35.05;;
55330;SDS011;58851;42.984;20.336;2023-02-28T06:34:09;67.47;;;32.15;;
55330;SDS011;58851;42.984;20.336;2023-02-28T06:36:36;62.75;;;29.35;;
55330;SDS011;58851;42.984;20.336;2023-02-28T06:39:03;67.43;;;31.95;;
55330;SDS011;58851;42.984;20.336;2023-02-28T06:41:29;65.53;;;31.90;;
55330;SDS011;58851;42.984;20.336;2023-02-28T06:43:55;68.65;;;31.80;;
55330;SDS011;58851;42.984;20.336;2023-02-28T06:46:21;59.17;;;29.33;;
55330;SDS011;58851;42.984;20.336;2023-02-28T06:48:46;78.78;;;38.65;;
55330;SDS011;58851;42.984;20.336;2023-02-28T06:51:13;63.13;;;31.20;;
55330;SDS011;58851;42.984;20.336;2023-02-28T06:53:41;52.17;;;27.55;;
55330;SDS011;58851;42.984;20.336;2023-02-28T06:56:08;38.40;;;24.80;;
55330;SDS011;58851;42.984;20.336;2023-02-28T06:58:36;49.83;;;26.25;;
55330;SDS011;58851;42.984;20.336;2023-02-28T07:01:03;38.95;;;21.52;;
55330;SDS011;58851;42.984;20.336;2023-02-28T07:03:29;56.05;;;28.25;;
55330;SDS011;58851;42.984;20.336;2023-02-28T07:05:55;57.58;;;29.10;;
55330;SDS011;58851;42.984;20.336;2023-02-28T07:08:22;58.83;;;32.20;;
55330;SDS011;58851;42.984;20.336;2023-02-28T07:10:53;63.17;;;30.77;;
55330;SDS011;58851;42.984;20.336;2023-02-28T07:13:20;59.65;;;34.05;;
55330;SDS011;58851;42.984;20.336;2023-02-28T07:15:53;60.58;;;32.80;;
55330;SDS011;58851;42.984;20.336;2023-02-28T07:18:26;63.70;;;32.75;;
55330;SDS011;58851;42.984;20.336;2023-02-28T07:20:51;65.25;;;32.85;;
55330;SDS011;58851;42.984;20.336;2023-02-28T07:23:18;56.00;;;29.95;;
55330;SDS011;58851;42.984;20.336;2023-02-28T07:25:44;45.03;;;26.75;;
55330;SDS011;58851;42.984;20.336;2023-02-28T07:28:10;44.08;;;24.23;;
55330;SDS011;58851;42.984;20.336;2023-02-28T07:30:37;42.55;;;24.73;;
55330;SDS011;58851;42.984;20.336;2023-02-28T07:33:03;54.58;;;27.30;;
55330;SDS011;58851;42.984;20.336;2023-02-28T07:35:29;80.35;;;42.30;;
55330;SDS011;58851;42.984;20.336;2023-02-28T07:37:57;45.08;;;27.25;;
55330;SDS011;58851;42.984;20.336;2023-02-28T07:40:23;49.90;;;26.50;;
55330;SDS011;58851;42.984;20.336;2023-02-28T07:42:49;43.95;;;22.00;;
55330;SDS011;58851;42.984;20.336;2023-02-28T07:45:14;53.13;;;28.17;;
55330;SDS011;58851;42.984;20.336;2023-02-28T07:47:41;53.92;;;28.48;;
55330;SDS011;58851;42.984;20.336;2023-02-28T07:50:07;56.45;;;29.70;;
55330;SDS011;58851;42.984;20.336;2023-02-28T07:52:38;64.80;;;35.40;;
55330;SDS011;58851;42.984;20.336;2023-02-28T07:55:05;99.22;;;47.08;;
55330;SDS011;58851;42.984;20.336;2023-02-28T07:57:32;81.15;;;40.97;;
55330;SDS011;58851;42.984;20.336;2023-02-28T07:59:57;64.93;;;34.13;;
55330;SDS011;58851;42.984;20.336;2023-02-28T08:02:23;68.55;;;36.80;;
55330;SDS011;58851;42.984;20.336;2023-02-28T08:04:50;70.50;;;36.60;;
55330;SDS011;58851;42.984;20.336;2023-02-28T08:07:15;63.97;;;36.15;;
55330;SDS011;58851;42.984;20.336;2023-02-28T08:09:42;78.90;;;39.22;;
55330;SDS011;58851;42.984;20.336;2023-02-28T08:12:09;56.25;;;35.25;;
55330;SDS011;58851;42.984;20.336;2023-02-28T08:14:36;53.42;;;32.20;;
55330;SDS011;58851;42.984;20.336;2023-02-28T08:17:02;59.78;;;30.63;;
55330;SDS011;58851;42.984;20.336;2023-02-28T08:19:30;55.55;;;32.13;;
55330;SDS011;58851;42.984;20.336;2023-02-28T08:21:56;53.05;;;29.30;;
55330;SDS011;58851;42.984;20.336;2023-02-28T08:24:22;46.97;;;26.30;;
55330;SDS011;58851;42.984;20.336;2023-02-28T08:26:49;80.95;;;41.38;;
55330;SDS011;58851;42.984;20.336;2023-02-28T08:29:15;66.65;;;34.55;;
55330;SDS011;58851;42.984;20.336;2023-02-28T08:31:41;62.78;;;36.53;;
55330;SDS011;58851;42.984;20.336;2023-02-28T08:34:08;58.47;;;32.92;;
55330;SDS011;58851;42.984;20.336;2023-02-28T08:36:36;52.25;;;30.27;;
55330;SDS011;58851;42.984;20.336;2023-02-28T08:39:02;45.38;;;26.30;;
55330;SDS011;58851;42.984;20.336;2023-02-28T08:41:29;38.78;;;20.42;;
55330;SDS011;58851;42.984;20.336;2023-02-28T08:43:54;43.22;;;23.38;;
55330;SDS011;58851;42.984;20.336;2023-02-28T08:46:20;43.97;;;26.52;;
55330;SDS011;58851;42.984;20.336;2023-02-28T08:48:46;50.58;;;33.30;;
55330;SDS011;58851;42.984;20.336;2023-02-28T08:51:16;29.77;;;17.27;;
55330;SDS011;58851;42.984;20.336;2023-02-28T08:53:51;34.33;;;19.83;;
55330;SDS011;58851;42.984;20.336;2023-02-28T08:56:18;34.60;;;18.08;;
55330;SDS011;58851;42.984;20.336;2023-02-28T08:58:45;37.78;;;21.40;;
55330;SDS011;58851;42.984;20.336;2023-02-28T09:01:15;33.53;;;20.80;;
55330;SDS011;58851;42.984;20.336;2023-02-28T09:03:43;46.25;;;27.95;;
55330;SDS011;58851;42.984;20.336;2023-02-28T09:06:11;54.42;;;31.88;;
55330;SDS011;58851;42.984;20.336;2023-02-28T09:08:38;84.70;;;56.95;;
55330;SDS011;58851;42.984;20.336;2023-02-28T09:11:04;37.05;;;23.95;;
55330;SDS011;58851;42.984;20.336;2023-02-28T09:13:30;57.97;;;31.25;;
55330;SDS011;58851;42.984;20.336;2023-02-28T09:16:00;43.83;;;26.88;;
55330;SDS011;58851;42.984;20.336;2023-02-28T09:18:27;42.80;;;26.23;;
55330;SDS011;58851;42.984;20.336;2023-02-28T09:20:53;44.22;;;24.45;;
55330;SDS011;58851;42.984;20.336;2023-02-28T09:23:19;43.28;;;25.98;;
55330;SDS011;58851;42.984;20.336;2023-02-28T09:25:49;51.60;;;30.45;;
55330;SDS011;58851;42.984;20.336;2023-02-28T09:28:17;53.22;;;32.55;;
55330;SDS011;58851;42.984;20.336;2023-02-28T09:30:44;48.30;;;28.17;;
55330;SDS011;58851;42.984;20.336;2023-02-28T09:33:11;74.75;;;38.13;;
55330;SDS011;58851;42.984;20.336;2023-02-28T09:35:38;59.53;;;35.40;;
55330;SDS011;58851;42.984;20.336;2023-02-28T09:38:05;67.43;;;40.13;;
55330;SDS011;58851;42.984;20.336;2023-02-28T09:40:34;64.85;;;41.42;;
55330;SDS011;58851;42.984;20.336;2023-02-28T09:43:02;71.13;;;42.28;;
55330;SDS011;58851;42.984;20.336;2023-02-28T09:45:36;76.82;;;45.60;;
55330;SDS011;58851;42.984;20.336;2023-02-28T09:48:25;79.68;;;48.03;;
55330;SDS011;58851;42.984;20.336;2023-02-28T09:51:46;84.00;;;48.42;;
55330;SDS011;58851;42.984;20.336;2023-02-28T09:53:53;107.97;;;61.88;;
55330;SDS011;58851;42.984;20.336;2023-02-28T09:56:24;158.90;;;81.30;;
55330;SDS011;58851;42.984;20.336;2023-02-28T10:06:59;67.65;;;36.88;;
55330;SDS011;58851;42.984;20.336;2023-02-28T10:09:30;68.40;;;40.70;;
55330;SDS011;58851;42.984;20.336;2023-02-28T10:12:03;71.03;;;42.97;;
55330;SDS011;58851;42.984;20.336;2023-02-28T10:14:32;77.68;;;47.00;;
55330;SDS011;58851;42.984;20.336;2023-02-28T10:17:01;79.82;;;48.10;;
55330;SDS011;58851;42.984;20.336;2023-02-28T10:19:59;78.38;;;48.97;;
55330;SDS011;58851;42.984;20.336;2023-02-28T10:25:20;60.63;;;33.25;;
55330;SDS011;58851;42.984;20.336;2023-02-28T10:27:49;46.25;;;28.88;;
55330;SDS011;58851;42.984;20.336;2023-02-28T10:30:18;55.28;;;34.08;;
55330;SDS011;58851;42.984;20.336;2023-02-28T10:32:47;58.30;;;37.22;;
55330;SDS011;58851;42.984;20.336;2023-02-28T10:35:17;57.15;;;33.10;;
55330;SDS011;58851;42.984;20.336;2023-02-28T10:37:49;65.20;;;39.42;;
55330;SDS011;58851;42.984;20.336;2023-02-28T10:45:31;54.90;;;33.50;;
55330;SDS011;58851;42.984;20.336;2023-02-28T10:48:03;44.55;;;28.00;;
55330;SDS011;58851;42.984;20.336;2023-02-28T10:50:43;56.67;;;32.17;;
55330;SDS011;58851;42.984;20.336;2023-02-28T11:01:16;73.90;;;47.40;;
55330;SDS011;58851;42.984;20.336;2023-02-28T11:03:47;69.30;;;43.97;;
55330;SDS011;58851;42.984;20.336;2023-02-28T11:08:54;55.10;;;34.78;;
55330;SDS011;58851;42.984;20.336;2023-02-28T11:11:22;61.42;;;34.70;;
55330;SDS011;58851;42.984;20.336;2023-02-28T11:13:54;89.22;;;50.38;;
55330;SDS011;58851;42.984;20.336;2023-02-28T11:16:31;81.30;;;51.75;;
55330;SDS011;58851;42.984;20.336;2023-02-28T11:19:00;82.00;;;47.95;;
55330;SDS011;58851;42.984;20.336;2023-02-28T11:21:27;80.75;;;47.42;;
55330;SDS011;58851;42.984;20.336;2023-02-28T11:24:44;85.22;;;48.70;;
55330;SDS011;58851;42.984;20.336;2023-02-28T11:26:55;67.15;;;39.03;;
55330;SDS011;58851;42.984;20.336;2023-02-28T11:29:25;62.65;;;35.38;;
55330;SDS011;58851;42.984;20.336;2023-02-28T11:32:11;63.67;;;38.63;;
55330;SDS011;58851;42.984;20.336;2023-02-28T11:34:37;58.95;;;34.05;;
55330;SDS011;58851;42.984;20.336;2023-02-28T11:37:05;61.97;;;37.17;;
55330;SDS011;58851;42.984;20.336;2023-02-28T11:39:37;47.20;;;29.20;;
55330;SDS011;58851;42.984;20.336;2023-02-28T11:55:39;50.20;;;28.60;;
55330;SDS011;58851;42.984;20.336;2023-02-28T11:58:22;37.67;;;22.17;;
55330;SDS011;58851;42.984;20.336;2023-02-28T12:03:44;42.60;;;24.92;;
55330;SDS011;58851;42.984;20.336;2023-02-28T12:20:25;50.42;;;31.02;;
55330;SDS011;58851;42.984;20.336;2023-02-28T12:23:30;55.42;;;35.13;;
55330;SDS011;58851;42.984;20.336;2023-02-28T12:26:19;53.60;;;33.65;;
55330;SDS011;58851;42.984;20.336;2023-02-28T12:29:47;55.15;;;32.47;;
55330;SDS011;58851;42.984;20.336;2023-02-28T12:32:25;57.53;;;33.05;;
55330;SDS011;58851;42.984;20.336;2023-02-28T12:34:57;60.35;;;35.60;;
55330;SDS011;58851;42.984;20.336;2023-02-28T12:40:25;71.20;;;39.00;;
55330;SDS011;58851;42.984;20.336;2023-02-28T12:43:02;58.15;;;31.95;;
55330;SDS011;58851;42.984;20.336;2023-02-28T12:45:35;64.72;;;34.03;;
55330;SDS011;58851;42.984;20.336;2023-02-28T12:48:10;56.15;;;33.28;;
55330;SDS011;58851;42.984;20.336;2023-02-28T12:50:55;64.82;;;35.08;;
55330;SDS011;58851;42.984;20.336;2023-02-28T12:53:35;49.00;;;30.50;;
55330;SDS011;58851;42.984;20.336;2023-02-28T13:04:40;60.72;;;36.25;;
55330;SDS011;58851;42.984;20.336;2023-02-28T13:10:07;57.58;;;31.52;;
55330;SDS011;58851;42.984;20.336;2023-02-28T13:12:34;50.85;;;30.30;;
55330;SDS011;58851;42.984;20.336;2023-02-28T13:15:03;89.00;;;48.45;;
55330;SDS011;58851;42.984;20.336;2023-02-28T13:17:41;95.22;;;51.85;;
55330;SDS011;58851;42.984;20.336;2023-02-28T13:20:17;77.63;;;42.08;;
55330;SDS011;58851;42.984;20.336;2023-02-28T13:22:57;64.97;;;37.30;;
55330;SDS011;58851;42.984;20.336;2023-02-28T13:27:59;90.05;;;45.42;;
55330;SDS011;58851;42.984;20.336;2023-02-28T13:33:34;56.50;;;32.25;;
55330;SDS011;58851;42.984;20.336;2023-02-28T13:46:33;65.78;;;35.55;;
55330;SDS011;58851;42.984;20.336;2023-02-28T13:49:23;59.67;;;34.03;;
55330;SDS011;58851;42.984;20.336;2023-02-28T13:54:36;60.90;;;37.95;;
55330;SDS011;58851;42.984;20.336;2023-02-28T13:57:13;77.97;;;44.33;;
55330;SDS011;58851;42.984;20.336;2023-02-28T13:59:49;57.03;;;33.83;;
55330;SDS011;58851;42.984;20.336;2023-02-28T14:07:49;159.50;;;76.13;;
55330;SDS011;58851;42.984;20.336;2023-02-28T14:10:26;80.80;;;47.38;;
55330;SDS011;58851;42.984;20.336;2023-02-28T14:15:49;67.50;;;36.38;;
55330;SDS011;58851;42.984;20.336;2023-02-28T14:18:27;69.88;;;35.00;;
55330;SDS011;58851;42.984;20.336;2023-02-28T14:37:37;81.07;;;50.28;;
55330;SDS011;58851;42.984;20.336;2023-02-28T14:40:11;92.10;;;56.13;;
55330;SDS011;58851;42.984;20.336;2023-02-28T14:42:45;107.50;;;64.43;;
55330;SDS011;58851;42.984;20.336;2023-02-28T14:45:17;64.03;;;35.50;;
55330;SDS011;58851;42.984;20.336;2023-02-28T14:47:47;96.70;;;51.00;;
55330;SDS011;58851;42.984;20.336;2023-02-28T14:50:18;77.45;;;41.72;;
55330;SDS011;58851;42.984;20.336;2023-02-28T14:52:46;67.55;;;39.15;;
55330;SDS011;58851;42.984;20.336;2023-02-28T14:55:14;80.45;;;42.10;;
55330;SDS011;58851;42.984;20.336;2023-02-28T14:57:52;91.50;;;46.92;;
55330;SDS011;58851;42.984;20.336;2023-02-28T15:00:25;108.10;;;54.95;;
55330;SDS011;58851;42.984;20.336;2023-02-28T15:02:59;69.63;;;41.13;;
55330;SDS011;58851;42.984;20.336;2023-02-28T15:05:30;86.55;;;44.97;;
55330;SDS011;58851;42.984;20.336;2023-02-28T15:08:09;116.95;;;56.72;;
55330;SDS011;58851;42.984;20.336;2023-02-28T15:10:49;70.90;;;37.25;;
55330;SDS011;58851;42.984;20.336;2023-02-28T15:13:18;92.30;;;47.15;;
55330;SDS011;58851;42.984;20.336;2023-02-28T15:15:49;74.63;;;43.85;;
55330;SDS011;58851;42.984;20.336;2023-02-28T15:18:25;72.30;;;34.90;;
55330;SDS011;58851;42.984;20.336;2023-02-28T15:20:57;69.18;;;36.17;;
55330;SDS011;58851;42.984;20.336;2023-02-28T15:23:27;72.07;;;36.40;;
55330;SDS011;58851;42.984;20.336;2023-02-28T15:25:53;78.03;;;37.50;;
55330;SDS011;58851;42.984;20.336;2023-02-28T15:28:20;63.92;;;34.28;;
55330;SDS011;58851;42.984;20.336;2023-02-28T15:31:01;68.70;;;37.92;;
55330;SDS011;58851;42.984;20.336;2023-02-28T15:33:47;85.60;;;44.80;;
55330;SDS011;58851;42.984;20.336;2023-02-28T15:36:23;69.13;;;40.00;;
55330;SDS011;58851;42.984;20.336;2023-02-28T15:38:52;74.25;;;41.28;;
55330;SDS011;58851;42.984;20.336;2023-02-28T15:41:29;74.05;;;40.75;;
55330;SDS011;58851;42.984;20.336;2023-02-28T15:49:45;84.15;;;44.22;;
55330;SDS011;58851;42.984;20.336;2023-02-28T15:52:18;101.40;;;50.75;;
55330;SDS011;58851;42.984;20.336;2023-02-28T15:54:49;82.93;;;44.67;;
55330;SDS011;58851;42.984;20.336;2023-02-28T15:57:17;99.82;;;53.17;;
55330;SDS011;58851;42.984;20.336;2023-02-28T15:59:53;96.35;;;48.28;;
55330;SDS011;58851;42.984;20.336;2023-02-28T16:02:33;78.00;;;38.75;;
55330;SDS011;58851;42.984;20.336;2023-02-28T16:05:02;78.65;;;40.15;;
55330;SDS011;58851;42.984;20.336;2023-02-28T16:07:31;78.57;;;41.92;;
55330;SDS011;58851;42.984;20.336;2023-02-28T16:09:58;79.38;;;41.90;;
55330;SDS011;58851;42.984;20.336;2023-02-28T16:12:25;79.30;;;43.83;;
55330;SDS011;58851;42.984;20.336;2023-02-28T16:14:57;76.63;;;39.20;;
55330;SDS011;58851;42.984;20.336;2023-02-28T16:17:28;75.22;;;42.20;;
55330;SDS011;58851;42.984;20.336;2023-02-28T16:19:56;87.00;;;44.60;;
55330;SDS011;58851;42.984;20.336;2023-02-28T16:22:23;95.95;;;50.58;;
55330;SDS011;58851;42.984;20.336;2023-02-28T16:24:49;89.72;;;53.58;;
55330;SDS011;58851;42.984;20.336;2023-02-28T16:27:19;87.38;;;46.17;;
55330;SDS011;58851;42.984;20.336;2023-02-28T16:29:55;91.28;;;46.90;;
55330;SDS011;58851;42.984;20.336;2023-02-28T16:32:21;103.28;;;51.85;;
55330;SDS011;58851;42.984;20.336;2023-02-28T16:34:46;101.60;;;48.85;;
55330;SDS011;58851;42.984;20.336;2023-02-28T16:37:13;100.72;;;51.95;;
55330;SDS011;58851;42.984;20.336;2023-02-28T16:39:41;142.63;;;65.80;;
55330;SDS011;58851;42.984;20.336;2023-02-28T16:42:14;153.57;;;80.43;;
55330;SDS011;58851;42.984;20.336;2023-02-28T16:44:49;160.43;;;74.80;;
55330;SDS011;58851;42.984;20.336;2023-02-28T16:47:15;121.75;;;64.20;;
55330;SDS011;58851;42.984;20.336;2023-02-28T16:49:41;131.32;;;62.17;;
55330;SDS011;58851;42.984;20.336;2023-02-28T16:52:08;127.22;;;66.20;;
55330;SDS011;58851;42.984;20.336;2023-02-28T16:54:36;109.38;;;54.63;;
55330;SDS011;58851;42.984;20.336;2023-02-28T16:57:04;118.97;;;60.22;;
55330;SDS011;58851;42.984;20.336;2023-02-28T16:59:31;132.07;;;66.45;;
55330;SDS011;58851;42.984;20.336;2023-02-28T17:01:57;124.43;;;59.35;;
55330;SDS011;58851;42.984;20.336;2023-02-28T17:04:26;166.00;;;84.55;;
55330;SDS011;58851;42.984;20.336;2023-02-28T17:06:52;143.40;;;72.05;;
55330;SDS011;58851;42.984;20.336;2023-02-28T17:09:20;115.32;;;58.10;;
55330;SDS011;58851;42.984;20.336;2023-02-28T17:11:48;122.35;;;59.60;;
55330;SDS011;58851;42.984;20.336;2023-02-28T17:14:14;133.77;;;68.45;;
55330;SDS011;58851;42.984;20.336;2023-02-28T17:16:40;110.43;;;52.28;;
55330;SDS011;58851;42.984;20.336;2023-02-28T17:19:10;93.40;;;47.75;;